sensor_id;sensor_type;location;lat;lon;timestamp;temperature;humidity
17442;DHT22;8838;50.144;8.176;2023-12-20T00:01:48;4.50;99.90
17442;DHT22;8838;50.144;8.176;2023-12-20T00:04:16;4.50;99.90
17442;DHT22;8838;50.144;8.176;2023-12-20T00:06:44;4.50;99.90
17442;DHT22;8838;50.144;8.176;2023-12-20T00:09:13;4.40;99.90
17442;DHT22;8838;50.144;8.176;2023-12-20T00:11:42;4.40;99.90
17442;DHT22;8838;50.144;8.176;2023-12-20T00:14:09;4.40;99.90
17442;DHT22;8838;50.144;8.176;2023-12-20T00:16:37;4.40;99.90
17442;DHT22;8838;50.144;8.176;2023-12-20T00:19:05;4.40;99.90
17442;DHT22;8838;50.144;8.176;2023-12-20T00:21:33;4.40;99.90
17442;DHT22;8838;50.144;8.176;2023-12-20T00:24:02;4.40;99.90
17442;DHT22;8838;50.144;8.176;2023-12-20T00:26:30;4.40;99.90
17442;DHT22;8838;50.144;8.176;2023-12-20T00:28:59;4.40;99.90
17442;DHT22;8838;50.144;8.176;2023-12-20T00:31:27;4.40;99.90
17442;DHT22;8838;50.144;8.176;2023-12-20T00:33:55;4.40;99.90
17442;DHT22;8838;50.144;8.176;2023-12-20T00:36:22;4.40;99.90
17442;DHT22;8838;50.144;8.176;2023-12-20T00:38:50;4.40;99.90
17442;DHT22;8838;50.144;8.176;2023-12-20T00:41:17;4.40;99.90
17442;DHT22;8838;50.144;8.176;2023-12-20T00:43:45;4.40;99.90
17442;DHT22;8838;50.144;8.176;2023-12-20T00:46:14;4.30;99.90
17442;DHT22;8838;50.144;8.176;2023-12-20T00:48:42;4.40;99.90
17442;DHT22;8838;50.144;8.176;2023-12-20T00:51:11;4.40;99.90
17442;DHT22;8838;50.144;8.176;2023-12-20T00:53:39;4.40;99.90
17442;DHT22;8838;50.144;8.176;2023-12-20T00:56:06;4.40;99.90
17442;DHT22;8838;50.144;8.176;2023-12-20T00:58:35;4.40;99.90
17442;DHT22;8838;50.144;8.176;2023-12-20T01:01:03;4.40;99.90
17442;DHT22;8838;50.144;8.176;2023-12-20T01:03:32;4.40;99.90
17442;DHT22;8838;50.144;8.176;2023-12-20T01:06:00;4.40;99.90
17442;DHT22;8838;50.144;8.176;2023-12-20T01:08:30;4.40;99.90
17442;DHT22;8838;50.144;8.176;2023-12-20T01:11:03;4.40;99.90
17442;DHT22;8838;50.144;8.176;2023-12-20T01:13:31;4.40;99.90
17442;DHT22;8838;50.144;8.176;2023-12-20T01:15:58;4.40;99.90
17442;DHT22;8838;50.144;8.176;2023-12-20T01:18:27;4.40;99.90
17442;DHT22;8838;50.144;8.176;2023-12-20T01:20:56;4.40;99.90
17442;DHT22;8838;50.144;8.176;2023-12-20T01:23:23;4.50;99.90
17442;DHT22;8838;50.144;8.176;2023-12-20T01:25:53;4.40;99.90
17442;DHT22;8838;50.144;8.176;2023-12-20T01:28:21;4.40;99.90
17442;DHT22;8838;50.144;8.176;2023-12-20T01:30:49;4.40;99.90
17442;DHT22;8838;50.144;8.176;2023-12-20T01:33:16;4.40;99.90
17442;DHT22;8838;50.144;8.176;2023-12-20T01:35:46;4.40;99.90
17442;DHT22;8838;50.144;8.176;2023-12-20T01:38:15;4.40;99.90
17442;DHT22;8838;50.144;8.176;2023-12-20T01:40:44;4.40;99.90
17442;DHT22;8838;50.144;8.176;2023-12-20T01:43:12;4.40;99.90
17442;DHT22;8838;50.144;8.176;2023-12-20T01:45:40;4.40;99.90
17442;DHT22;8838;50.144;8.176;2023-12-20T01:48:08;4.40;99.90
17442;DHT22;8838;50.144;8.176;2023-12-20T01:50:37;4.50;99.90
17442;DHT22;8838;50.144;8.176;2023-12-20T01:53:08;4.50;99.90
17442;DHT22;8838;50.144;8.176;2023-12-20T01:55:39;4.50;99.90
17442;DHT22;8838;50.144;8.176;2023-12-20T01:58:08;4.40;99.90
17442;DHT22;8838;50.144;8.176;2023-12-20T02:00:37;4.50;99.90
17442;DHT22;8838;50.144;8.176;2023-12-20T02:03:05;4.50;99.90
17442;DHT22;8838;50.144;8.176;2023-12-20T02:05:34;4.50;99.90
17442;DHT22;8838;50.144;8.176;2023-12-20T02:08:03;4.50;99.90
17442;DHT22;8838;50.144;8.176;2023-12-20T02:10:31;4.50;99.90
17442;DHT22;8838;50.144;8.176;2023-12-20T02:13:01;4.50;99.90
17442;DHT22;8838;50.144;8.176;2023-12-20T02:15:28;4.50;99.90
17442;DHT22;8838;50.144;8.176;2023-12-20T02:17:56;4.50;99.90
17442;DHT22;8838;50.144;8.176;2023-12-20T02:20:24;4.50;99.90
17442;DHT22;8838;50.144;8.176;2023-12-20T02:22:53;4.50;99.90
17442;DHT22;8838;50.144;8.176;2023-12-20T02:25:21;4.50;99.90
17442;DHT22;8838;50.144;8.176;2023-12-20T02:27:48;4.50;99.90
17442;DHT22;8838;50.144;8.176;2023-12-20T02:30:17;4.50;99.90
17442;DHT22;8838;50.144;8.176;2023-12-20T02:32:44;4.60;99.90
17442;DHT22;8838;50.144;8.176;2023-12-20T02:35:11;4.50;99.90
17442;DHT22;8838;50.144;8.176;2023-12-20T02:37:39;4.60;99.90
17442;DHT22;8838;50.144;8.176;2023-12-20T02:40:09;4.60;99.90
17442;DHT22;8838;50.144;8.176;2023-12-20T02:42:37;4.60;99.90
17442;DHT22;8838;50.144;8.176;2023-12-20T02:45:07;4.60;99.90
17442;DHT22;8838;50.144;8.176;2023-12-20T02:47:34;4.60;99.90
17442;DHT22;8838;50.144;8.176;2023-12-20T02:50:02;4.70;99.90
17442;DHT22;8838;50.144;8.176;2023-12-20T02:52:30;4.70;99.90
17442;DHT22;8838;50.144;8.176;2023-12-20T02:55:00;4.70;99.90
17442;DHT22;8838;50.144;8.176;2023-12-20T02:57:29;4.70;99.90
17442;DHT22;8838;50.144;8.176;2023-12-20T02:59:58;4.70;99.90
17442;DHT22;8838;50.144;8.176;2023-12-20T03:02:25;4.70;99.90
17442;DHT22;8838;50.144;8.176;2023-12-20T03:04:53;4.70;99.90
17442;DHT22;8838;50.144;8.176;2023-12-20T03:07:20;4.70;99.90
17442;DHT22;8838;50.144;8.176;2023-12-20T03:09:50;4.70;99.90
17442;DHT22;8838;50.144;8.176;2023-12-20T03:12:17;4.70;99.90
17442;DHT22;8838;50.144;8.176;2023-12-20T03:14:47;4.70;99.90
17442;DHT22;8838;50.144;8.176;2023-12-20T03:17:15;4.70;99.90
17442;DHT22;8838;50.144;8.176;2023-12-20T03:19:42;4.70;99.90
17442;DHT22;8838;50.144;8.176;2023-12-20T03:22:10;4.70;99.90
17442;DHT22;8838;50.144;8.176;2023-12-20T03:24:38;4.70;99.90
17442;DHT22;8838;50.144;8.176;2023-12-20T03:27:08;4.70;99.90
17442;DHT22;8838;50.144;8.176;2023-12-20T03:29:36;4.80;99.90
17442;DHT22;8838;50.144;8.176;2023-12-20T03:32:07;4.80;99.90
17442;DHT22;8838;50.144;8.176;2023-12-20T03:34:36;4.80;99.90
17442;DHT22;8838;50.144;8.176;2023-12-20T03:37:04;4.80;99.90
17442;DHT22;8838;50.144;8.176;2023-12-20T03:39:31;4.90;99.90
17442;DHT22;8838;50.144;8.176;2023-12-20T03:41:59;4.90;99.90
17442;DHT22;8838;50.144;8.176;2023-12-20T03:44:27;4.90;99.90
17442;DHT22;8838;50.144;8.176;2023-12-20T03:46:55;4.90;99.90
17442;DHT22;8838;50.144;8.176;2023-12-20T03:49:25;4.90;99.90
17442;DHT22;8838;50.144;8.176;2023-12-20T03:51:54;4.90;99.90
17442;DHT22;8838;50.144;8.176;2023-12-20T03:54:24;4.90;99.90
17442;DHT22;8838;50.144;8.176;2023-12-20T03:56:53;4.90;99.90
17442;DHT22;8838;50.144;8.176;2023-12-20T03:59:21;4.90;99.90
17442;DHT22;8838;50.144;8.176;2023-12-20T04:01:50;4.80;99.90
17442;DHT22;8838;50.144;8.176;2023-12-20T04:04:18;4.80;99.90
17442;DHT22;8838;50.144;8.176;2023-12-20T04:06:47;4.80;99.90
17442;DHT22;8838;50.144;8.176;2023-12-20T04:09:15;4.80;99.90
17442;DHT22;8838;50.144;8.176;2023-12-20T04:11:43;4.80;99.90
17442;DHT22;8838;50.144;8.176;2023-12-20T04:14:10;4.80;99.90
17442;DHT22;8838;50.144;8.176;2023-12-20T04:16:38;4.80;99.90
17442;DHT22;8838;50.144;8.176;2023-12-20T04:19:06;4.70;99.90
17442;DHT22;8838;50.144;8.176;2023-12-20T04:21:34;4.70;99.90
17442;DHT22;8838;50.144;8.176;2023-12-20T04:24:03;4.70;99.90
17442;DHT22;8838;50.144;8.176;2023-12-20T04:26:32;4.70;99.90
17442;DHT22;8838;50.144;8.176;2023-12-20T04:29:00;4.60;99.90
17442;DHT22;8838;50.144;8.176;2023-12-20T04:31:29;4.50;99.90
17442;DHT22;8838;50.144;8.176;2023-12-20T04:33:56;4.40;99.90
17442;DHT22;8838;50.144;8.176;2023-12-20T04:36:25;4.30;99.90
17442;DHT22;8838;50.144;8.176;2023-12-20T04:38:55;4.20;99.90
17442;DHT22;8838;50.144;8.176;2023-12-20T04:41:27;4.10;99.90
17442;DHT22;8838;50.144;8.176;2023-12-20T04:43:55;4.00;99.90
17442;DHT22;8838;50.144;8.176;2023-12-20T04:46:22;3.90;99.90
17442;DHT22;8838;50.144;8.176;2023-12-20T04:48:50;3.80;99.90
17442;DHT22;8838;50.144;8.176;2023-12-20T04:51:17;3.70;99.90
17442;DHT22;8838;50.144;8.176;2023-12-20T04:53:45;3.60;99.90
17442;DHT22;8838;50.144;8.176;2023-12-20T04:56:13;3.60;99.90
17442;DHT22;8838;50.144;8.176;2023-12-20T04:58:44;3.50;99.90
17442;DHT22;8838;50.144;8.176;2023-12-20T05:01:13;3.50;99.90
17442;DHT22;8838;50.144;8.176;2023-12-20T05:03:40;3.40;99.90
17442;DHT22;8838;50.144;8.176;2023-12-20T05:06:09;3.40;99.90
17442;DHT22;8838;50.144;8.176;2023-12-20T05:08:38;3.40;99.90
17442;DHT22;8838;50.144;8.176;2023-12-20T05:11:06;3.40;99.90
17442;DHT22;8838;50.144;8.176;2023-12-20T05:13:36;3.40;99.90
17442;DHT22;8838;50.144;8.176;2023-12-20T05:16:08;3.50;99.90
17442;DHT22;8838;50.144;8.176;2023-12-20T05:18:36;3.50;99.90
17442;DHT22;8838;50.144;8.176;2023-12-20T05:21:05;3.50;99.90
17442;DHT22;8838;50.144;8.176;2023-12-20T05:23:33;3.50;99.90
17442;DHT22;8838;50.144;8.176;2023-12-20T05:26:01;3.50;99.90
17442;DHT22;8838;50.144;8.176;2023-12-20T05:28:29;3.50;99.90
17442;DHT22;8838;50.144;8.176;2023-12-20T05:30:57;3.50;99.90
17442;DHT22;8838;50.144;8.176;2023-12-20T05:33:29;3.50;99.90
17442;DHT22;8838;50.144;8.176;2023-12-20T05:35:57;3.50;99.90
17442;DHT22;8838;50.144;8.176;2023-12-20T05:38:25;3.40;99.90
17442;DHT22;8838;50.144;8.176;2023-12-20T05:40:55;3.40;99.90
17442;DHT22;8838;50.144;8.176;2023-12-20T05:43:22;3.30;99.90
17442;DHT22;8838;50.144;8.176;2023-12-20T05:45:52;3.30;99.90
17442;DHT22;8838;50.144;8.176;2023-12-20T05:48:19;3.30;99.90
17442;DHT22;8838;50.144;8.176;2023-12-20T05:50:50;3.30;99.90
17442;DHT22;8838;50.144;8.176;2023-12-20T05:53:18;3.30;99.90
17442;DHT22;8838;50.144;8.176;2023-12-20T05:55:46;3.30;99.90
17442;DHT22;8838;50.144;8.176;2023-12-20T05:58:13;3.30;99.90
17442;DHT22;8838;50.144;8.176;2023-12-20T06:00:44;3.20;99.90
17442;DHT22;8838;50.144;8.176;2023-12-20T06:03:12;3.20;99.90
17442;DHT22;8838;50.144;8.176;2023-12-20T06:05:39;3.20;99.90
17442;DHT22;8838;50.144;8.176;2023-12-20T06:08:09;3.10;99.90
17442;DHT22;8838;50.144;8.176;2023-12-20T06:10:36;3.10;99.90
17442;DHT22;8838;50.144;8.176;2023-12-20T06:13:04;3.10;99.90
17442;DHT22;8838;50.144;8.176;2023-12-20T06:15:32;3.10;99.90
17442;DHT22;8838;50.144;8.176;2023-12-20T06:18:00;3.00;99.90
17442;DHT22;8838;50.144;8.176;2023-12-20T06:20:30;3.00;99.90
17442;DHT22;8838;50.144;8.176;2023-12-20T06:22:57;3.10;99.90
17442;DHT22;8838;50.144;8.176;2023-12-20T06:25:28;3.10;99.90
17442;DHT22;8838;50.144;8.176;2023-12-20T06:27:57;3.10;99.90
17442;DHT22;8838;50.144;8.176;2023-12-20T06:30:28;3.00;99.90
17442;DHT22;8838;50.144;8.176;2023-12-20T06:32:58;3.00;99.90
17442;DHT22;8838;50.144;8.176;2023-12-20T06:35:26;2.90;99.90
17442;DHT22;8838;50.144;8.176;2023-12-20T06:37:55;2.90;99.90
17442;DHT22;8838;50.144;8.176;2023-12-20T06:40:23;2.90;99.90
17442;DHT22;8838;50.144;8.176;2023-12-20T06:42:53;2.80;99.90
17442;DHT22;8838;50.144;8.176;2023-12-20T06:45:25;2.80;99.90
17442;DHT22;8838;50.144;8.176;2023-12-20T06:47:53;2.80;99.90
17442;DHT22;8838;50.144;8.176;2023-12-20T06:50:21;2.80;99.90
17442;DHT22;8838;50.144;8.176;2023-12-20T06:52:48;2.80;99.90
17442;DHT22;8838;50.144;8.176;2023-12-20T06:55:16;2.90;99.90
17442;DHT22;8838;50.144;8.176;2023-12-20T06:57:43;2.90;99.90
17442;DHT22;8838;50.144;8.176;2023-12-20T07:00:15;2.90;99.90
17442;DHT22;8838;50.144;8.176;2023-12-20T07:02:44;3.00;99.90
17442;DHT22;8838;50.144;8.176;2023-12-20T07:05:16;2.90;99.90
17442;DHT22;8838;50.144;8.176;2023-12-20T07:07:45;2.90;99.90
17442;DHT22;8838;50.144;8.176;2023-12-20T07:10:15;3.00;99.90
17442;DHT22;8838;50.144;8.176;2023-12-20T07:12:42;2.90;99.90
17442;DHT22;8838;50.144;8.176;2023-12-20T07:15:11;2.90;99.90
17442;DHT22;8838;50.144;8.176;2023-12-20T07:17:39;2.90;99.90
17442;DHT22;8838;50.144;8.176;2023-12-20T07:20:08;3.00;99.90
17442;DHT22;8838;50.144;8.176;2023-12-20T07:22:37;3.00;99.90
17442;DHT22;8838;50.144;8.176;2023-12-20T07:25:05;3.10;99.90
17442;DHT22;8838;50.144;8.176;2023-12-20T07:27:33;3.20;99.90
17442;DHT22;8838;50.144;8.176;2023-12-20T07:30:01;3.20;99.90
17442;DHT22;8838;50.144;8.176;2023-12-20T07:32:29;3.30;99.90
17442;DHT22;8838;50.144;8.176;2023-12-20T07:34:59;3.30;99.90
17442;DHT22;8838;50.144;8.176;2023-12-20T07:37:26;3.40;99.90
17442;DHT22;8838;50.144;8.176;2023-12-20T07:39:54;3.40;99.90
17442;DHT22;8838;50.144;8.176;2023-12-20T07:42:21;3.40;99.90
17442;DHT22;8838;50.144;8.176;2023-12-20T07:44:49;3.40;99.90
17442;DHT22;8838;50.144;8.176;2023-12-20T07:47:21;3.50;99.90
17442;DHT22;8838;50.144;8.176;2023-12-20T07:49:48;3.40;99.90
17442;DHT22;8838;50.144;8.176;2023-12-20T07:52:20;3.50;99.90
17442;DHT22;8838;50.144;8.176;2023-12-20T07:54:48;3.50;99.90
17442;DHT22;8838;50.144;8.176;2023-12-20T07:57:16;3.40;99.90
17442;DHT22;8838;50.144;8.176;2023-12-20T07:59:43;3.50;99.90
17442;DHT22;8838;50.144;8.176;2023-12-20T08:02:11;3.50;99.90
17442;DHT22;8838;50.144;8.176;2023-12-20T08:04:38;3.60;99.90
17442;DHT22;8838;50.144;8.176;2023-12-20T08:07:07;3.50;99.90
17442;DHT22;8838;50.144;8.176;2023-12-20T08:09:37;3.60;99.90
17442;DHT22;8838;50.144;8.176;2023-12-20T08:12:04;3.60;99.90
17442;DHT22;8838;50.144;8.176;2023-12-20T08:14:35;3.60;99.90
17442;DHT22;8838;50.144;8.176;2023-12-20T08:17:02;3.60;99.90
17442;DHT22;8838;50.144;8.176;2023-12-20T08:19:30;3.60;99.90
17442;DHT22;8838;50.144;8.176;2023-12-20T08:21:57;3.60;99.90
17442;DHT22;8838;50.144;8.176;2023-12-20T08:24:24;3.60;99.90
17442;DHT22;8838;50.144;8.176;2023-12-20T08:26:54;3.60;99.90
17442;DHT22;8838;50.144;8.176;2023-12-20T08:29:22;3.60;99.90
17442;DHT22;8838;50.144;8.176;2023-12-20T08:31:52;3.60;99.90
17442;DHT22;8838;50.144;8.176;2023-12-20T08:34:20;3.70;99.90
17442;DHT22;8838;50.144;8.176;2023-12-20T08:36:47;3.70;99.90
17442;DHT22;8838;50.144;8.176;2023-12-20T08:39:14;3.70;99.90
17442;DHT22;8838;50.144;8.176;2023-12-20T08:41:42;3.70;99.90
17442;DHT22;8838;50.144;8.176;2023-12-20T08:44:11;3.70;99.90
17442;DHT22;8838;50.144;8.176;2023-12-20T08:46:39;3.80;99.90
17442;DHT22;8838;50.144;8.176;2023-12-20T08:49:06;3.70;99.90
17442;DHT22;8838;50.144;8.176;2023-12-20T08:51:35;3.80;99.90
17442;DHT22;8838;50.144;8.176;2023-12-20T08:54:05;3.90;99.90
17442;DHT22;8838;50.144;8.176;2023-12-20T08:56:34;3.90;99.90
17442;DHT22;8838;50.144;8.176;2023-12-20T08:59:02;3.80;99.90
17442;DHT22;8838;50.144;8.176;2023-12-20T09:01:31;3.80;99.90
17442;DHT22;8838;50.144;8.176;2023-12-20T09:03:58;3.90;99.90
17442;DHT22;8838;50.144;8.176;2023-12-20T09:06:25;3.90;99.90
17442;DHT22;8838;50.144;8.176;2023-12-20T09:08:53;3.90;99.90
17442;DHT22;8838;50.144;8.176;2023-12-20T09:11:20;4.00;99.90
17442;DHT22;8838;50.144;8.176;2023-12-20T09:13:47;4.00;99.90
17442;DHT22;8838;50.144;8.176;2023-12-20T09:16:15;4.10;99.90
17442;DHT22;8838;50.144;8.176;2023-12-20T09:18:45;4.10;99.90
17442;DHT22;8838;50.144;8.176;2023-12-20T09:21:12;4.20;99.90
17442;DHT22;8838;50.144;8.176;2023-12-20T09:23:46;4.30;99.90
17442;DHT22;8838;50.144;8.176;2023-12-20T09:26:13;4.30;99.90
17442;DHT22;8838;50.144;8.176;2023-12-20T09:28:41;4.40;99.90
17442;DHT22;8838;50.144;8.176;2023-12-20T09:31:09;4.50;99.90
17442;DHT22;8838;50.144;8.176;2023-12-20T09:33:36;4.60;99.90
17442;DHT22;8838;50.144;8.176;2023-12-20T09:36:06;4.60;99.90
17442;DHT22;8838;50.144;8.176;2023-12-20T09:38:34;4.70;99.90
17442;DHT22;8838;50.144;8.176;2023-12-20T09:41:02;4.70;99.90
17442;DHT22;8838;50.144;8.176;2023-12-20T09:43:30;4.80;99.90
17442;DHT22;8838;50.144;8.176;2023-12-20T09:46:00;4.80;99.90
17442;DHT22;8838;50.144;8.176;2023-12-20T09:48:30;4.80;99.90
17442;DHT22;8838;50.144;8.176;2023-12-20T09:50:58;4.80;99.90
17442;DHT22;8838;50.144;8.176;2023-12-20T09:53:28;4.80;99.90
17442;DHT22;8838;50.144;8.176;2023-12-20T09:55:58;5.00;99.90
17442;DHT22;8838;50.144;8.176;2023-12-20T09:58:27;5.10;99.90
17442;DHT22;8838;50.144;8.176;2023-12-20T10:00:55;5.10;99.90
17442;DHT22;8838;50.144;8.176;2023-12-20T10:03:25;5.10;99.90
17442;DHT22;8838;50.144;8.176;2023-12-20T10:05:54;5.20;99.90
17442;DHT22;8838;50.144;8.176;2023-12-20T10:08:24;5.20;99.90
17442;DHT22;8838;50.144;8.176;2023-12-20T10:10:53;5.10;99.90
17442;DHT22;8838;50.144;8.176;2023-12-20T10:13:23;5.10;99.90
17442;DHT22;8838;50.144;8.176;2023-12-20T10:15:51;5.10;99.90
17442;DHT22;8838;50.144;8.176;2023-12-20T10:18:21;5.20;99.90
17442;DHT22;8838;50.144;8.176;2023-12-20T10:20:49;5.20;99.90
17442;DHT22;8838;50.144;8.176;2023-12-20T10:23:17;5.20;99.90
17442;DHT22;8838;50.144;8.176;2023-12-20T10:25:57;5.20;99.90
17442;DHT22;8838;50.144;8.176;2023-12-20T10:28:25;5.30;99.90
17442;DHT22;8838;50.144;8.176;2023-12-20T10:30:53;5.40;99.90
17442;DHT22;8838;50.144;8.176;2023-12-20T10:33:26;5.50;99.90
17442;DHT22;8838;50.144;8.176;2023-12-20T10:35:55;5.50;99.90
17442;DHT22;8838;50.144;8.176;2023-12-20T10:38:22;5.50;99.90
17442;DHT22;8838;50.144;8.176;2023-12-20T10:40:53;5.50;99.90
17442;DHT22;8838;50.144;8.176;2023-12-20T10:43:23;5.60;99.90
17442;DHT22;8838;50.144;8.176;2023-12-20T10:45:53;5.70;99.90
17442;DHT22;8838;50.144;8.176;2023-12-20T10:48:23;6.00;99.90
17442;DHT22;8838;50.144;8.176;2023-12-20T10:50:55;6.30;99.90
17442;DHT22;8838;50.144;8.176;2023-12-20T10:53:26;6.60;99.90
17442;DHT22;8838;50.144;8.176;2023-12-20T10:56:03;6.50;99.90
17442;DHT22;8838;50.144;8.176;2023-12-20T10:58:34;6.30;99.90
17442;DHT22;8838;50.144;8.176;2023-12-20T11:01:03;6.00;99.90
17442;DHT22;8838;50.144;8.176;2023-12-20T11:03:34;5.80;99.90
17442;DHT22;8838;50.144;8.176;2023-12-20T11:06:05;5.60;99.90
17442;DHT22;8838;50.144;8.176;2023-12-20T11:08:38;5.50;99.90
17442;DHT22;8838;50.144;8.176;2023-12-20T11:11:12;5.50;99.90
17442;DHT22;8838;50.144;8.176;2023-12-20T11:13:53;5.60;99.90
17442;DHT22;8838;50.144;8.176;2023-12-20T11:16:21;5.60;99.90
17442;DHT22;8838;50.144;8.176;2023-12-20T11:18:50;5.70;99.90
17442;DHT22;8838;50.144;8.176;2023-12-20T11:21:18;5.80;99.90
17442;DHT22;8838;50.144;8.176;2023-12-20T11:23:46;5.70;99.90
17442;DHT22;8838;50.144;8.176;2023-12-20T11:26:16;5.70;99.90
17442;DHT22;8838;50.144;8.176;2023-12-20T11:28:46;5.60;99.90
17442;DHT22;8838;50.144;8.176;2023-12-20T11:31:14;5.50;99.90
17442;DHT22;8838;50.144;8.176;2023-12-20T11:33:45;5.40;99.90
17442;DHT22;8838;50.144;8.176;2023-12-20T11:36:17;5.40;99.90
17442;DHT22;8838;50.144;8.176;2023-12-20T11:38:56;5.40;99.90
17442;DHT22;8838;50.144;8.176;2023-12-20T11:41:24;5.30;99.90
17442;DHT22;8838;50.144;8.176;2023-12-20T11:43:58;5.30;99.90
17442;DHT22;8838;50.144;8.176;2023-12-20T11:46:27;5.40;99.90
17442;DHT22;8838;50.144;8.176;2023-12-20T11:48:57;5.50;99.90
17442;DHT22;8838;50.144;8.176;2023-12-20T11:51:25;5.50;99.90
17442;DHT22;8838;50.144;8.176;2023-12-20T11:53:53;5.50;99.90
17442;DHT22;8838;50.144;8.176;2023-12-20T11:56:20;5.70;99.90
17442;DHT22;8838;50.144;8.176;2023-12-20T11:58:49;5.70;99.90
17442;DHT22;8838;50.144;8.176;2023-12-20T12:01:19;5.70;99.90
17442;DHT22;8838;50.144;8.176;2023-12-20T12:03:47;5.70;99.90
17442;DHT22;8838;50.144;8.176;2023-12-20T12:06:15;5.60;99.90
17442;DHT22;8838;50.144;8.176;2023-12-20T12:08:42;5.60;99.90
17442;DHT22;8838;50.144;8.176;2023-12-20T12:11:10;5.50;99.90
17442;DHT22;8838;50.144;8.176;2023-12-20T12:13:38;5.50;99.90
17442;DHT22;8838;50.144;8.176;2023-12-20T12:16:06;5.50;99.90
17442;DHT22;8838;50.144;8.176;2023-12-20T12:18:35;5.50;99.90
17442;DHT22;8838;50.144;8.176;2023-12-20T12:21:03;5.50;99.90
17442;DHT22;8838;50.144;8.176;2023-12-20T12:23:31;5.40;99.90
17442;DHT22;8838;50.144;8.176;2023-12-20T12:25:58;5.50;99.90
17442;DHT22;8838;50.144;8.176;2023-12-20T12:28:26;5.60;99.90
17442;DHT22;8838;50.144;8.176;2023-12-20T12:30:57;5.70;99.90
17442;DHT22;8838;50.144;8.176;2023-12-20T12:33:25;5.70;99.90
17442;DHT22;8838;50.144;8.176;2023-12-20T12:35:54;5.70;99.90
17442;DHT22;8838;50.144;8.176;2023-12-20T12:38:22;5.70;99.90
17442;DHT22;8838;50.144;8.176;2023-12-20T12:40:51;5.70;99.90
17442;DHT22;8838;50.144;8.176;2023-12-20T12:43:21;5.70;99.90
17442;DHT22;8838;50.144;8.176;2023-12-20T12:45:49;5.70;99.90
17442;DHT22;8838;50.144;8.176;2023-12-20T12:48:16;5.70;99.90
17442;DHT22;8838;50.144;8.176;2023-12-20T12:50:45;5.70;99.90
17442;DHT22;8838;50.144;8.176;2023-12-20T12:53:15;5.60;99.90
17442;DHT22;8838;50.144;8.176;2023-12-20T12:55:44;5.60;99.90
17442;DHT22;8838;50.144;8.176;2023-12-20T12:58:13;5.60;99.90
17442;DHT22;8838;50.144;8.176;2023-12-20T13:00:41;5.70;99.90
17442;DHT22;8838;50.144;8.176;2023-12-20T13:03:09;5.80;99.90
17442;DHT22;8838;50.144;8.176;2023-12-20T13:05:37;5.80;99.90
17442;DHT22;8838;50.144;8.176;2023-12-20T13:08:08;5.80;99.90
17442;DHT22;8838;50.144;8.176;2023-12-20T13:10:41;5.80;99.90
17442;DHT22;8838;50.144;8.176;2023-12-20T13:13:08;5.90;99.90
17442;DHT22;8838;50.144;8.176;2023-12-20T13:15:35;5.90;99.90
17442;DHT22;8838;50.144;8.176;2023-12-20T13:18:03;5.90;99.90
17442;DHT22;8838;50.144;8.176;2023-12-20T13:20:33;5.90;99.90
17442;DHT22;8838;50.144;8.176;2023-12-20T13:23:01;5.80;99.90
17442;DHT22;8838;50.144;8.176;2023-12-20T13:25:29;5.80;99.90
17442;DHT22;8838;50.144;8.176;2023-12-20T13:27:58;5.80;99.90
17442;DHT22;8838;50.144;8.176;2023-12-20T13:30:26;5.80;99.90
17442;DHT22;8838;50.144;8.176;2023-12-20T13:32:54;5.80;99.90
17442;DHT22;8838;50.144;8.176;2023-12-20T13:35:21;5.90;99.90
17442;DHT22;8838;50.144;8.176;2023-12-20T13:37:49;5.90;99.90
17442;DHT22;8838;50.144;8.176;2023-12-20T13:40:17;6.00;99.90
17442;DHT22;8838;50.144;8.176;2023-12-20T13:42:45;6.00;99.90
17442;DHT22;8838;50.144;8.176;2023-12-20T13:45:16;6.10;99.90
17442;DHT22;8838;50.144;8.176;2023-12-20T13:47:43;6.10;99.90
17442;DHT22;8838;50.144;8.176;2023-12-20T13:50:10;6.10;99.90
17442;DHT22;8838;50.144;8.176;2023-12-20T13:52:38;6.10;99.90
17442;DHT22;8838;50.144;8.176;2023-12-20T13:55:07;6.10;99.90
17442;DHT22;8838;50.144;8.176;2023-12-20T13:57:36;6.00;99.90
17442;DHT22;8838;50.144;8.176;2023-12-20T14:00:07;6.00;99.90
17442;DHT22;8838;50.144;8.176;2023-12-20T14:02:42;6.00;99.90
17442;DHT22;8838;50.144;8.176;2023-12-20T14:05:10;5.90;99.90
17442;DHT22;8838;50.144;8.176;2023-12-20T14:07:37;5.90;99.90
17442;DHT22;8838;50.144;8.176;2023-12-20T14:10:06;5.80;99.90
17442;DHT22;8838;50.144;8.176;2023-12-20T14:12:33;5.80;99.90
17442;DHT22;8838;50.144;8.176;2023-12-20T14:15:02;5.80;99.90
17442;DHT22;8838;50.144;8.176;2023-12-20T14:17:30;5.70;99.90
17442;DHT22;8838;50.144;8.176;2023-12-20T14:19:59;5.80;99.90
17442;DHT22;8838;50.144;8.176;2023-12-20T14:22:29;5.70;99.90
17442;DHT22;8838;50.144;8.176;2023-12-20T14:24:57;5.70;99.90
17442;DHT22;8838;50.144;8.176;2023-12-20T14:27:24;5.60;99.90
17442;DHT22;8838;50.144;8.176;2023-12-20T14:29:53;5.50;99.90
17442;DHT22;8838;50.144;8.176;2023-12-20T14:32:20;5.50;99.90
17442;DHT22;8838;50.144;8.176;2023-12-20T14:34:47;5.50;99.90
17442;DHT22;8838;50.144;8.176;2023-12-20T14:37:16;5.50;99.90
17442;DHT22;8838;50.144;8.176;2023-12-20T14:39:43;5.50;99.90
17442;DHT22;8838;50.144;8.176;2023-12-20T14:42:11;5.50;99.90
17442;DHT22;8838;50.144;8.176;2023-12-20T14:44:39;5.40;99.90
17442;DHT22;8838;50.144;8.176;2023-12-20T14:47:07;5.50;99.90
17442;DHT22;8838;50.144;8.176;2023-12-20T14:49:35;5.50;99.90
17442;DHT22;8838;50.144;8.176;2023-12-20T14:52:03;5.40;99.90
17442;DHT22;8838;50.144;8.176;2023-12-20T14:54:32;5.40;99.90
17442;DHT22;8838;50.144;8.176;2023-12-20T14:57:00;5.40;99.90
17442;DHT22;8838;50.144;8.176;2023-12-20T14:59:31;5.30;99.90
17442;DHT22;8838;50.144;8.176;2023-12-20T15:01:59;5.30;99.90
17442;DHT22;8838;50.144;8.176;2023-12-20T15:04:30;5.30;99.90
17442;DHT22;8838;50.144;8.176;2023-12-20T15:06:58;5.20;99.90
17442;DHT22;8838;50.144;8.176;2023-12-20T15:09:26;5.30;99.90
17442;DHT22;8838;50.144;8.176;2023-12-20T15:11:57;5.20;99.90
17442;DHT22;8838;50.144;8.176;2023-12-20T15:14:26;5.20;99.90
17442;DHT22;8838;50.144;8.176;2023-12-20T15:16:54;5.20;99.90
17442;DHT22;8838;50.144;8.176;2023-12-20T15:19:22;5.20;99.90
17442;DHT22;8838;50.144;8.176;2023-12-20T15:21:50;5.20;99.90
17442;DHT22;8838;50.144;8.176;2023-12-20T15:24:20;5.20;99.90
17442;DHT22;8838;50.144;8.176;2023-12-20T15:26:55;5.20;99.90
17442;DHT22;8838;50.144;8.176;2023-12-20T15:29:25;5.10;99.90
17442;DHT22;8838;50.144;8.176;2023-12-20T15:31:53;5.10;99.90
17442;DHT22;8838;50.144;8.176;2023-12-20T15:34:20;5.10;99.90
17442;DHT22;8838;50.144;8.176;2023-12-20T15:36:48;5.10;99.90
17442;DHT22;8838;50.144;8.176;2023-12-20T15:39:16;5.10;99.90
17442;DHT22;8838;50.144;8.176;2023-12-20T15:41:44;5.10;99.90
17442;DHT22;8838;50.144;8.176;2023-12-20T15:44:13;5.10;99.90
17442;DHT22;8838;50.144;8.176;2023-12-20T15:46:42;5.10;99.90
17442;DHT22;8838;50.144;8.176;2023-12-20T15:49:10;5.20;99.90
17442;DHT22;8838;50.144;8.176;2023-12-20T15:51:42;5.10;99.90
17442;DHT22;8838;50.144;8.176;2023-12-20T15:54:10;5.10;99.90
17442;DHT22;8838;50.144;8.176;2023-12-20T15:56:41;5.10;99.90
17442;DHT22;8838;50.144;8.176;2023-12-20T15:59:13;5.10;99.90
17442;DHT22;8838;50.144;8.176;2023-12-20T16:01:44;5.10;99.90
17442;DHT22;8838;50.144;8.176;2023-12-20T16:04:12;5.20;99.90
17442;DHT22;8838;50.144;8.176;2023-12-20T16:06:40;5.20;99.90
17442;DHT22;8838;50.144;8.176;2023-12-20T16:09:08;5.20;99.90
17442;DHT22;8838;50.144;8.176;2023-12-20T16:11:36;5.20;99.90